createdAt,value
2019-04-23T00:01:23.814Z,61.70
2019-04-23T00:03:58.214Z,61.90
2019-04-23T00:06:18.468Z,62.10
2019-04-23T00:08:58.048Z,62.30
2019-04-23T00:11:17.458Z,62.10
2019-04-23T00:16:27.644Z,62.30
2019-04-23T00:21:26.656Z,63.60
2019-04-23T00:24:04.797Z,62.70
2019-04-23T00:26:25.706Z,62.90
2019-04-23T00:29:00.979Z,62.90
2019-04-23T00:31:24.559Z,63.00
2019-04-23T00:33:44.869Z,62.60
2019-04-23T00:36:19.859Z,62.70
2019-04-23T00:38:45.496Z,62.80
2019-04-23T00:41:11.250Z,62.70
2019-04-23T00:43:45.432Z,62.10
2019-04-23T00:46:09.232Z,62.00
2019-04-23T00:51:02.290Z,62.20
2019-04-23T00:53:32.616Z,61.70
2019-04-23T00:56:22.047Z,61.70
2019-04-23T00:58:38.201Z,61.70
2019-04-23T01:00:57.755Z,61.60
2019-04-23T01:03:25.392Z,61.10
2019-04-23T01:06:02.616Z,60.60
2019-04-23T01:13:38.057Z,60.90
2019-04-23T01:16:00.720Z,60.70
2019-04-23T01:18:37.854Z,60.60
2019-04-23T01:20:53.468Z,60.40
2019-04-23T01:23:54.449Z,60.00
2019-04-23T01:26:34.358Z,59.50
2019-04-23T01:29:14.022Z,59.40
2019-04-23T01:31:43.313Z,59.70
2019-04-23T01:34:13.051Z,59.30
2019-04-23T01:36:51.643Z,59.10
2019-04-23T01:39:08.258Z,58.60
2019-04-23T01:41:33.344Z,59.40
2019-04-23T01:44:01.641Z,59.30
2019-04-23T01:46:37.316Z,59.60
2019-04-23T01:48:58.228Z,59.30
2019-04-23T01:51:36.791Z,59.70
2019-04-23T01:53:58.679Z,59.60
2019-04-23T01:56:24.317Z,59.70
2019-04-23T01:59:01.918Z,59.80
2019-04-23T02:01:25.802Z,59.90
2019-04-23T02:03:57.196Z,59.60
2019-04-23T02:06:20.502Z,59.50
2019-04-23T02:08:53.571Z,59.20
2019-04-23T02:11:13.116Z,59.00
2019-04-23T02:13:48.776Z,58.80
2019-04-23T02:16:19.174Z,58.90
2019-04-23T02:18:43.734Z,58.80
2019-04-23T02:21:10.608Z,58.20
2019-04-23T02:23:57.298Z,58.10
2019-04-23T02:26:15.284Z,58.50
2019-04-23T02:28:53.268Z,57.70
2019-04-23T02:33:53.598Z,57.20
2019-04-23T02:36:31.712Z,57.10
2019-04-23T02:38:52.416Z,57.00
2019-04-23T02:43:35.659Z,57.40
2019-04-23T02:46:05.456Z,57.50
2019-04-23T02:51:04.088Z,58.00
2019-04-23T02:53:51.070Z,58.30
2019-04-23T02:56:12.188Z,58.50
2019-04-23T02:58:39.167Z,58.50
2019-04-23T03:03:38.587Z,58.80
2019-04-23T03:11:07.368Z,59.40
2019-04-23T03:13:35.040Z,58.70
2019-04-23T03:24:21.385Z,59.30
2019-04-23T03:26:57.369Z,58.60
2019-04-23T03:29:22.015Z,58.60
2019-04-23T03:35:24.080Z,58.60
2019-04-23T03:37:11.222Z,58.40
2019-04-23T03:38:55.544Z,58.20
2019-04-23T03:41:41.712Z,58.30
2019-04-23T03:44:02.137Z,57.80
2019-04-23T03:48:59.502Z,57.80
2019-04-23T03:51:34.130Z,57.60
2019-04-23T03:54:16.611Z,57.60
2019-04-23T03:59:08.659Z,56.80
2019-04-23T04:01:29.796Z,56.90
2019-04-23T04:11:19.220Z,56.20
2019-04-23T04:16:36.184Z,55.70
2019-04-23T04:19:09.508Z,55.50
2019-04-23T04:26:17.271Z,54.80
2019-04-23T04:31:30.927Z,54.50
2019-04-23T04:36:14.043Z,53.90
2019-04-23T04:38:40.091Z,53.70
2019-04-23T04:46:15.085Z,53.80
2019-04-23T04:48:35.120Z,53.40
2019-04-23T04:53:46.903Z,53.40
2019-04-23T04:56:07.871Z,53.20
2019-04-23T04:58:23.845Z,52.60
2019-04-23T05:03:25.790Z,52.50
2019-04-23T05:06:08.000Z,52.30
2019-04-23T05:08:19.653Z,52.10
2019-04-23T05:11:01.746Z,51.90
2019-04-23T05:15:44.804Z,51.10
2019-04-23T05:23:43.299Z,49.50
2019-04-23T05:26:22.102Z,50.30
2019-04-23T05:28:55.611Z,49.20
2019-04-23T05:31:14.291Z,49.40
2019-04-23T05:33:43.403Z,49.10
2019-04-23T05:38:50.851Z,49.00
2019-04-23T05:41:19.928Z,48.80
2019-04-23T05:43:39.631Z,48.80
2019-04-23T05:46:09.699Z,48.30
2019-04-23T05:48:33.394Z,48.60
2019-04-23T05:51:04.318Z,48.40
2019-04-23T05:53:33.527Z,48.20
2019-04-23T05:56:01.535Z,47.70
2019-04-23T05:58:28.692Z,47.50
2019-04-23T06:01:37.927Z,47.10
2019-04-23T06:03:46.533Z,46.90
2019-04-23T06:06:14.275Z,47.30
2019-04-23T06:08:38.496Z,47.10
2019-04-23T06:11:15.159Z,46.40
2019-04-23T06:13:43.342Z,45.60
2019-04-23T06:16:09.663Z,45.20
2019-04-23T06:18:38.578Z,44.80
2019-04-23T06:21:02.295Z,44.50
2019-04-23T06:23:36.584Z,43.60
2019-04-23T06:26:19.482Z,42.80
2019-04-23T06:28:26.976Z,42.50
2019-04-23T06:31:01.996Z,42.20
2019-04-23T06:33:27.348Z,41.40
2019-04-23T06:35:57.207Z,41.90
2019-04-23T06:38:42.956Z,41.20
2019-04-23T06:40:54.318Z,40.50
2019-04-23T06:43:34.928Z,40.40
2019-04-23T06:46:03.630Z,40.70
2019-04-23T06:48:28.805Z,40.00
2019-04-23T06:53:21.367Z,39.90
2019-04-23T06:55:59.889Z,39.60
2019-04-23T06:58:26.014Z,39.90
2019-04-23T07:00:59.418Z,40.00
2019-04-23T07:03:25.114Z,40.20
2019-04-23T07:06:16.829Z,40.30
2019-04-23T07:11:18.862Z,38.00
2019-04-23T07:13:40.172Z,37.80
2019-04-23T07:16:03.438Z,38.00
2019-04-23T07:18:29.453Z,38.10
2019-04-23T07:21:09.817Z,38.80
2019-04-23T07:23:41.295Z,38.50
2019-04-23T07:26:08.068Z,38.50
2019-04-23T07:28:36.327Z,38.10
2019-04-23T07:31:12.077Z,37.60
2019-04-23T07:33:39.706Z,37.60
2019-04-23T07:36:03.797Z,37.80
2019-04-23T07:38:47.500Z,37.60
2019-04-23T07:41:23.412Z,37.90
2019-04-23T07:44:07.175Z,38.10
2019-04-23T07:46:31.884Z,36.70
2019-04-23T07:48:56.460Z,36.40
2019-04-23T07:51:27.702Z,38.00
2019-04-23T07:54:06.013Z,38.50
2019-04-23T07:56:24.090Z,37.50
2019-04-23T07:58:58.353Z,36.80
2019-04-23T08:01:25.174Z,36.10
2019-04-23T08:03:52.846Z,36.40
2019-04-23T08:06:19.380Z,35.50
2019-04-23T08:08:48.703Z,35.80
2019-04-23T08:18:49.353Z,34.30
2019-04-23T08:21:27.649Z,35.70
2019-04-23T08:26:59.259Z,35.70
2019-04-23T08:29:25.129Z,34.90
2019-04-23T08:32:02.507Z,35.20
2019-04-23T08:39:25.957Z,34.70
2019-04-23T08:42:09.421Z,35.50
2019-04-23T08:45:01.299Z,35.50
2019-04-23T08:47:17.132Z,35.20
2019-04-23T08:49:50.793Z,36.00
2019-04-23T08:52:13.444Z,36.30
2019-04-23T08:54:47.907Z,36.50
2019-04-23T08:57:21.457Z,35.80
2019-04-23T08:59:43.886Z,35.20
2019-04-23T09:04:42.053Z,35.50
2019-04-23T09:07:09.646Z,34.70
2019-04-23T09:09:36.883Z,34.70
2019-04-23T09:12:24.201Z,34.10
2019-04-23T09:14:25.786Z,34.60
2019-04-23T09:17:03.114Z,33.70
2019-04-23T09:19:31.626Z,32.60
2019-04-23T09:22:02.070Z,32.50
2019-04-23T09:24:29.459Z,33.80
2019-04-23T09:27:01.832Z,33.20
2019-04-23T09:29:19.788Z,33.70
2019-04-23T09:35:02.297Z,33.40
2019-04-23T09:37:42.216Z,33.20
2019-04-23T09:40:41.503Z,32.20
2019-04-23T09:43:29.511Z,32.40
2019-04-23T09:46:32.596Z,32.20
2019-04-23T09:49:07.519Z,32.30
2019-04-23T09:51:30.224Z,32.20
2019-04-23T09:54:03.247Z,32.10
2019-04-23T09:56:34.324Z,32.40
2019-04-23T09:59:07.465Z,33.10
2019-04-23T10:01:25.814Z,33.00
2019-04-23T10:03:43.622Z,32.00
2019-04-23T10:06:06.236Z,32.30
2019-04-23T10:08:35.651Z,32.50
2019-04-23T10:10:57.470Z,32.20
2019-04-23T10:13:26.039Z,33.00
2019-04-23T10:15:53.918Z,32.50
2019-04-23T10:18:22.433Z,32.40
2019-04-23T10:20:49.416Z,33.10
2019-04-23T10:23:16.345Z,32.80
2019-04-23T10:25:43.761Z,32.90
2019-04-23T10:28:40.268Z,32.40
2019-04-23T10:31:08.930Z,32.40
2019-04-23T10:33:35.757Z,32.20
2019-04-23T10:36:08.808Z,31.90
2019-04-23T10:38:32.744Z,31.70
2019-04-23T10:41:00.404Z,32.00
2019-04-23T10:43:28.807Z,30.30
2019-04-23T10:46:36.411Z,31.20
2019-04-23T10:49:31.792Z,31.60
2019-04-23T10:52:08.988Z,32.60
2019-04-23T10:56:53.180Z,32.20
2019-04-23T11:02:29.758Z,31.30
2019-04-23T11:07:25.430Z,31.60
2019-04-23T11:12:24.215Z,31.30
2019-04-23T11:14:43.212Z,31.10
2019-04-23T11:19:52.467Z,31.50
2019-04-23T11:22:30.156Z,31.40
2019-04-23T11:27:05.427Z,30.90
2019-04-23T11:29:56.588Z,30.20
2019-04-23T11:32:06.774Z,30.50
2019-04-23T11:34:56.727Z,31.20
2019-04-23T11:39:32.579Z,31.40
2019-04-23T11:42:14.878Z,32.60
2019-04-23T11:44:43.518Z,31.90
2019-04-23T11:49:51.568Z,30.10
2019-04-23T11:52:09.291Z,29.60
2019-04-23T11:54:17.829Z,30.50
2019-04-23T11:57:21.977Z,30.20
2019-04-23T11:59:31.570Z,30.30
2019-04-23T12:02:05.715Z,31.80
2019-04-23T12:10:02.769Z,32.50
2019-04-23T12:12:28.001Z,31.40
2019-04-23T12:15:03.379Z,32.20
2019-04-23T12:17:49.233Z,31.90
2019-04-23T12:20:06.653Z,31.90
2019-04-23T12:22:30.106Z,32.50
2019-04-23T12:27:27.426Z,32.50
2019-04-23T12:29:52.289Z,32.10
2019-04-23T12:32:41.825Z,32.10
2019-04-23T12:37:55.578Z,32.70
2019-04-23T12:47:56.740Z,34.10
2019-04-23T12:50:41.655Z,34.70
2019-04-23T12:52:52.386Z,34.80
2019-04-23T12:57:46.740Z,35.40
2019-04-23T13:00:19.482Z,36.40
2019-04-23T13:02:46.310Z,36.70
2019-04-23T13:05:23.224Z,35.90
2019-04-23T13:10:11.984Z,35.00
2019-04-23T13:12:54.764Z,35.70
2019-04-23T13:15:10.863Z,35.10
2019-04-23T13:17:47.016Z,34.40
2019-04-23T13:20:07.986Z,34.60
2019-04-23T13:22:39.858Z,35.00
2019-04-23T13:25:34.547Z,35.60
2019-04-23T13:28:02.301Z,35.50
2019-04-23T13:33:03.183Z,35.70
2019-04-23T13:35:38.774Z,36.20
2019-04-23T13:40:24.468Z,36.50
2019-04-23T13:42:52.532Z,36.10
2019-04-23T13:45:53.520Z,36.20
2019-04-23T13:47:59.693Z,37.20
2019-04-23T13:55:22.847Z,38.50
2019-04-23T13:58:02.340Z,38.40
2019-04-23T14:00:22.642Z,38.40
2019-04-23T14:02:42.428Z,38.20
2019-04-23T14:05:12.351Z,38.80
2019-04-23T14:07:48.476Z,39.50
2019-04-23T14:10:24.546Z,40.20
2019-04-23T14:15:24.236Z,41.80
2019-04-23T14:20:21.534Z,42.20
2019-04-23T14:25:07.807Z,41.70
2019-04-23T14:27:37.121Z,42.00
2019-04-23T14:30:15.912Z,42.90
2019-04-23T14:32:30.759Z,43.20
2019-04-23T14:37:37.792Z,43.60
2019-04-23T14:40:26.612Z,43.90
2019-04-23T14:42:56.775Z,44.30
2019-04-23T14:45:29.693Z,44.40
2019-04-23T14:48:00.874Z,44.70
2019-04-23T14:50:31.974Z,45.70
2019-04-23T14:53:03.452Z,45.80
2019-04-23T14:58:06.411Z,47.10
2019-04-23T15:02:52.046Z,48.30
2019-04-23T15:05:17.138Z,48.40
2019-04-23T15:07:42.191Z,48.40
2019-04-23T15:10:23.279Z,48.40
2019-04-23T15:12:46.276Z,48.80
2019-04-23T15:17:47.249Z,49.40
2019-04-23T15:20:08.270Z,49.50
2019-04-23T15:22:57.373Z,49.70
2019-04-23T15:30:00.919Z,50.40
2019-04-23T15:32:45.088Z,54.80
2019-04-23T15:35:18.150Z,57.00
2019-04-23T15:37:58.199Z,57.10
2019-04-23T15:40:11.187Z,56.70
2019-04-23T15:42:34.836Z,56.40
2019-04-23T15:45:01.348Z,54.80
2019-04-23T15:47:32.007Z,54.50
2019-04-23T15:50:10.027Z,54.40
2019-04-23T15:52:29.829Z,57.40
2019-04-23T15:54:56.977Z,56.60
2019-04-23T15:57:32.059Z,57.60
2019-04-23T16:01:52.633Z,57.30
2019-04-23T16:04:20.392Z,56.40
2019-04-23T16:06:47.871Z,56.10
2019-04-23T16:09:45.296Z,55.60
2019-04-23T16:12:04.654Z,56.60
2019-04-23T16:14:58.363Z,56.40
2019-04-23T16:17:20.951Z,56.60
2019-04-23T16:22:36.636Z,56.60
2019-04-23T16:27:29.285Z,56.50
2019-04-23T16:32:57.678Z,56.50
2019-04-23T16:38:01.705Z,56.70
2019-04-23T16:40:24.009Z,56.80
2019-04-23T16:42:54.139Z,56.60
2019-04-23T16:45:15.330Z,57.00
2019-04-23T16:48:06.684Z,57.20
2019-04-23T16:50:13.128Z,57.40
2019-04-23T16:53:02.963Z,58.00
2019-04-23T16:55:08.960Z,58.80
2019-04-23T17:02:33.382Z,62.10
2019-04-23T17:05:21.649Z,63.10
2019-04-23T17:07:24.186Z,63.90
2019-04-23T17:12:16.741Z,66.60
2019-04-23T17:15:02.896Z,66.80
2019-04-23T17:17:23.017Z,67.30
2019-04-23T17:20:02.561Z,67.90
2019-04-23T17:22:17.968Z,68.60
2019-04-23T17:25:01.159Z,69.10
2019-04-23T17:27:24.056Z,69.80
2019-04-23T17:29:49.062Z,70.20
2019-04-23T17:32:15.188Z,70.70
2019-04-23T17:35:15.992Z,71.00
2019-04-23T17:37:35.153Z,71.10
2019-04-23T17:40:12.387Z,71.40
2019-04-23T17:42:38.820Z,71.50
2019-04-23T17:47:51.691Z,71.20
2019-04-23T17:52:52.648Z,70.70
2019-04-23T17:57:46.024Z,70.00
2019-04-23T18:10:17.588Z,66.70
2019-04-23T18:15:15.783Z,65.70
2019-04-23T18:17:35.585Z,65.20
2019-04-23T18:22:46.876Z,64.40
2019-04-23T18:27:50.657Z,63.20
2019-04-23T18:30:40.680Z,63.00
2019-04-23T18:35:29.816Z,62.10
2019-04-23T18:38:06.207Z,61.50
2019-04-23T18:40:51.537Z,61.30
2019-04-23T18:45:41.481Z,60.10
2019-04-23T18:48:33.007Z,59.40
2019-04-23T18:53:27.973Z,58.40
2019-04-23T18:56:00.346Z,58.00
2019-04-23T18:58:09.579Z,57.40
2019-04-23T19:00:53.260Z,56.60
2019-04-23T19:03:31.207Z,55.90
2019-04-23T19:06:14.948Z,55.70
2019-04-23T19:11:46.082Z,55.10
2019-04-23T19:14:30.892Z,55.00
2019-04-23T19:16:41.570Z,54.80
2019-04-23T19:19:05.279Z,54.80
2019-04-23T19:21:45.945Z,54.40
2019-04-23T19:23:54.953Z,54.40
2019-04-23T19:26:45.939Z,54.20
2019-04-23T19:28:55.487Z,53.80
2019-04-23T19:31:42.165Z,53.60
2019-04-23T19:36:49.272Z,52.80
2019-04-23T19:39:11.072Z,52.50
2019-04-23T19:41:49.564Z,51.90
2019-04-23T19:44:08.417Z,51.80
2019-04-23T19:46:50.557Z,51.90
2019-04-23T19:49:21.459Z,51.80
2019-04-23T19:51:33.923Z,51.70
2019-04-23T19:54:10.942Z,51.00
2019-04-23T19:58:56.924Z,50.60
2019-04-23T20:01:31.362Z,50.70
2019-04-23T20:03:54.457Z,50.30
2019-04-23T20:06:46.208Z,50.30
2019-04-23T20:09:12.635Z,49.10
2019-04-23T20:11:29.624Z,48.50
2019-04-23T20:16:30.571Z,48.30
2019-04-23T20:18:54.572Z,48.40
2019-04-23T20:21:08.702Z,48.50
2019-04-23T20:29:16.273Z,48.80
2019-04-23T20:32:57.197Z,48.70
2019-04-23T20:39:09.089Z,49.00
2019-04-23T20:41:54.761Z,49.40
2019-04-23T20:46:43.036Z,49.80
2019-04-23T20:49:07.276Z,50.10
2019-04-23T20:51:46.032Z,50.30
2019-04-23T20:54:08.821Z,50.50
2019-04-23T20:56:45.909Z,50.70
2019-04-23T20:59:03.073Z,50.70
2019-04-23T21:01:46.392Z,50.80
2019-04-23T21:04:09.139Z,51.00
2019-04-23T21:06:48.744Z,51.10
2019-04-23T21:11:48.277Z,51.30
2019-04-23T21:14:22.838Z,51.50
2019-04-23T21:16:41.238Z,51.50
2019-04-23T21:19:07.750Z,51.70
2019-04-23T21:21:43.721Z,51.90
2019-04-23T21:24:03.945Z,51.90
2019-04-23T21:26:37.224Z,51.50
2019-04-23T21:28:57.160Z,53.00
2019-04-23T21:31:37.719Z,52.40
2019-04-23T21:34:04.246Z,52.50
2019-04-23T21:36:35.581Z,52.80
2019-04-23T21:44:13.510Z,53.50
2019-04-23T21:46:49.587Z,53.80
2019-04-23T21:53:59.976Z,54.50
2019-04-23T21:56:37.148Z,54.60
2019-04-23T21:59:10.104Z,54.40
2019-04-23T22:01:54.153Z,55.20
2019-04-23T22:04:17.697Z,55.40
2019-04-23T22:06:43.314Z,55.60
2019-04-23T22:14:19.381Z,56.20
2019-04-23T22:16:41.465Z,56.40
2019-04-23T22:19:10.665Z,56.40
2019-04-23T22:21:43.443Z,56.50
2019-04-23T22:24:02.412Z,56.70
2019-04-23T22:26:37.986Z,56.90
2019-04-23T22:29:05.563Z,57.20
2019-04-23T22:31:29.571Z,57.50
2019-04-23T22:34:02.572Z,57.70
2019-04-23T22:36:20.714Z,58.30
2019-04-23T22:38:53.039Z,59.00
2019-04-23T22:41:16.224Z,59.60
2019-04-23T22:43:59.396Z,60.00
2019-04-23T22:49:07.849Z,60.70
2019-04-23T22:51:33.195Z,61.00
2019-04-23T22:54:00.490Z,61.20
2019-04-23T22:56:25.233Z,61.50
2019-04-23T22:59:02.198Z,62.00
2019-04-23T23:01:26.038Z,62.00
2019-04-23T23:03:59.000Z,62.50
2019-04-23T23:06:46.662Z,62.80
2019-04-23T23:09:12.128Z,62.90
2019-04-23T23:11:26.667Z,63.30
2019-04-23T23:14:10.327Z,63.80
2019-04-23T23:16:21.690Z,64.20
2019-04-23T23:18:58.532Z,64.30
2019-04-23T23:21:22.632Z,64.60
2019-04-23T23:23:52.989Z,64.80
2019-04-23T23:26:17.492Z,66.10
2019-04-23T23:28:44.729Z,65.40
2019-04-23T23:31:11.355Z,65.50
2019-04-23T23:33:47.188Z,65.60
2019-04-23T23:36:12.548Z,65.60
2019-04-23T23:38:57.347Z,65.70
2019-04-23T23:41:24.924Z,65.70
2019-04-23T23:43:41.453Z,65.60
2019-04-23T23:46:20.823Z,65.70
2019-04-23T23:48:35.570Z,65.80
2019-04-23T23:51:12.658Z,65.90
2019-04-23T23:53:55.053Z,65.90
2019-04-23T23:58:41.039Z,66.00
